Terminal Aerodrome Forecast
Issued by NWS

Current Version | Previous Version | Text Only | Print | Product List | Glossary On
Versions: 1 2 3 4 5 6 7 8 9 10 11 12 13 14 15 16 17
000
FTUS43 KAPX 042320
TAFPLN
TAF
KPLN 042320Z 0500/0524 36009KT P6SM FEW025 OVC040
     FM050600 36005KT P6SM SCT015 OVC035
     FM050900 VRB03KT 3SM BR BKN015
     FM051400 34006KT P6SM BKN035
     FM051800 30007KT P6SM FEW120=

USA.gov is the U.S. government's official web portal to all federal, state and local government web resources and services.